Terminal Aerodrome Forecast
Issued by NWS Shreveport, LA

Home | Current Version | Previous Version | Text Only | Print | Product List | Glossary On
Versions: 1 2 3 4 5 6 7 8 9 10 11 12 13 14 15 16 17 18 19 20
458
FTUS44 KSHV 271152
TAFLFK
TAF
KLFK 271152Z 2712/2812 VRB12G20KT 3SM TSRA BR BKN015 OVC060CB
     FM271500 16013G22KT P6SM VCTS BKN025 OVC060CB
      TEMPO 2715/2719 VRB15G25KT 2SM +TSRA BR BKN030 OVC060CB
     FM280200 16008KT P6SM BKN015 OVC080=

USA.gov is the U.S. government's official web portal to all federal, state and local government web resources and services.